Time;durP1;ratioP1;P1;durP2;ratioP2;P2;SDS_P1;SDS_P2;PMS_P1;PMS_P2;Temp;Humidity;BMP_temperature;BMP_pressure;BME280_temperature;BME280_humidity;BME280_pressure;Samples;Min_cycle;Max_cycle;Signal;HPM_P1;HPM_P2
2023/10/29 00:00:50;;;;;;;4.45;1.70;;;11.30;99.90;;;;;;5070395;28;20064;-72
2023/10/29 00:03:16;;;;;;;2.03;1.25;;;11.40;99.90;;;;;;5068513;28;20044;-72
2023/10/29 00:05:42;;;;;;;2.50;1.55;;;11.40;99.90;;;;;;5095930;28;20731;-73
2023/10/29 00:08:09;;;;;;;1.92;1.40;;;11.30;99.90;;;;;;5070396;28;20044;-72
2023/10/29 00:10:35;;;;;;;4.50;1.90;;;11.40;99.90;;;;;;5068378;28;20040;-72
2023/10/29 00:13:01;;;;;;;2.75;1.58;;;11.40;99.90;;;;;;5067234;28;20036;-72
2023/10/29 00:15:27;;;;;;;2.60;1.38;;;11.40;99.90;;;;;;5068941;28;20131;-73
2023/10/29 00:17:53;;;;;;;2.08;1.48;;;11.40;99.90;;;;;;5068724;28;20241;-73
2023/10/29 00:20:19;;;;;;;2.58;1.40;;;11.50;99.90;;;;;;5066767;28;20113;-73
2023/10/29 00:22:45;;;;;;;2.05;1.75;;;11.50;99.90;;;;;;5079594;28;20041;-73
2023/10/29 00:25:10;;;;;;;4.65;1.75;;;11.60;99.90;;;;;;5067038;28;20106;-72
2023/10/29 00:27:36;;;;;;;2.45;1.70;;;11.50;99.90;;;;;;5066734;28;20152;-72
2023/10/29 00:30:02;;;;;;;2.88;1.50;;;11.50;99.90;;;;;;5068422;28;20039;-73
2023/10/29 00:32:28;;;;;;;3.78;1.73;;;11.50;99.90;;;;;;5069254;28;20037;-72
2023/10/29 00:34:54;;;;;;;3.92;2.08;;;11.50;99.90;;;;;;5067299;28;20040;-72
2023/10/29 00:37:19;;;;;;;3.13;1.98;;;11.50;99.90;;;;;;5066066;28;20172;-72
2023/10/29 00:39:45;;;;;;;3.55;2.08;;;11.60;99.90;;;;;;5066001;28;20051;-72
2023/10/29 00:42:11;;;;;;;2.20;1.75;;;11.60;99.90;;;;;;5066670;28;20506;-72
2023/10/29 00:44:37;;;;;;;2.85;1.60;;;11.70;99.90;;;;;;5069130;28;20033;-72
2023/10/29 00:47:05;;;;;;;2.88;1.77;;;11.60;99.90;;;;;;5063412;28;20036;-72
2023/10/29 00:49:31;;;;;;;3.42;1.65;;;11.60;99.90;;;;;;5066069;28;20649;-73
2023/10/29 00:51:57;;;;;;;2.95;1.35;;;11.60;99.90;;;;;;5062878;28;20068;-73
2023/10/29 00:54:23;;;;;;;3.47;1.67;;;11.60;99.90;;;;;;5067787;28;20688;-73
2023/10/29 00:56:49;;;;;;;2.85;1.50;;;11.70;99.90;;;;;;5067978;28;20037;-73
2023/10/29 00:59:14;;;;;;;2.60;1.45;;;11.70;99.90;;;;;;5067692;28;20372;-72
2023/10/29 01:01:41;;;;;;;2.88;1.52;;;11.70;99.90;;;;;;5066662;28;20033;-72
2023/10/29 01:04:06;;;;;;;3.58;1.73;;;11.80;99.90;;;;;;5065059;28;20081;-72
2023/10/29 01:06:38;;;;;;;2.95;2.03;;;11.90;99.90;;;;;;5065792;28;20422;-72
2023/10/29 01:09:07;;;;;;;3.15;1.80;;;11.80;99.90;;;;;;5066674;28;20495;-72
2023/10/29 01:11:32;;;;;;;2.53;2.00;;;11.80;99.90;;;;;;5049103;28;20131;-72
2023/10/29 01:13:58;;;;;;;4.95;2.00;;;11.90;99.90;;;;;;5067430;28;20182;-72
2023/10/29 01:16:24;;;;;;;2.85;1.77;;;11.90;99.90;;;;;;5064448;28;20532;-72
2023/10/29 01:18:49;;;;;;;2.97;2.13;;;11.90;99.90;;;;;;5066962;28;20050;-72
2023/10/29 01:21:16;;;;;;;4.15;1.88;;;11.90;99.90;;;;;;5067281;28;20039;-72
2023/10/29 01:23:41;;;;;;;3.10;2.38;;;11.90;99.90;;;;;;5097899;28;20730;-72
2023/10/29 01:26:07;;;;;;;5.95;2.30;;;12.00;99.90;;;;;;5068431;28;20040;-72
2023/10/29 01:28:32;;;;;;;3.53;2.63;;;12.10;99.90;;;;;;5067171;28;20679;-72
2023/10/29 01:30:59;;;;;;;2.70;2.20;;;12.30;99.90;;;;;;5066401;28;20029;-72
2023/10/29 01:33:26;;;;;;;5.00;2.40;;;12.00;99.90;;;;;;5096782;28;20475;-72
2023/10/29 01:35:52;;;;;;;3.17;2.22;;;12.00;99.90;;;;;;5066215;28;20052;-72
2023/10/29 01:38:17;;;;;;;3.75;1.92;;;12.10;99.90;;;;;;5065988;28;20048;-72
2023/10/29 01:40:43;;;;;;;4.85;1.67;;;12.20;99.90;;;;;;5064934;28;20378;-72
2023/10/29 01:43:09;;;;;;;5.28;2.38;;;12.10;99.90;;;;;;5066001;28;20094;-72
2023/10/29 01:45:36;;;;;;;3.83;2.30;;;12.20;99.90;;;;;;5070431;28;20028;-72
2023/10/29 01:48:02;;;;;;;3.42;2.35;;;12.20;99.90;;;;;;5067634;28;20036;-72
2023/10/29 01:50:28;;;;;;;2.47;2.25;;;12.30;99.90;;;;;;5071434;28;20388;-72
2023/10/29 01:52:54;;;;;;;3.47;2.83;;;12.20;99.90;;;;;;5071428;28;20152;-72
2023/10/29 01:55:19;;;;;;;2.58;1.88;;;12.30;99.90;;;;;;5070641;28;20041;-72
2023/10/29 01:57:45;;;;;;;6.30;2.10;;;12.30;99.90;;;;;;5099335;28;20442;-72
2023/10/29 02:00:11;;;;;;;4.15;1.90;;;12.40;99.90;;;;;;5071546;28;20040;-72
2023/10/29 02:02:37;;;;;;;4.28;1.88;;;12.40;99.90;;;;;;5098546;27;20047;-72
2023/10/29 02:05:04;;;;;;;5.97;1.70;;;12.40;99.90;;;;;;5068077;28;20471;-72
2023/10/29 02:07:29;;;;;;;4.57;1.98;;;12.30;99.90;;;;;;5067543;28;20123;-72
2023/10/29 02:09:55;;;;;;;3.13;1.70;;;12.40;99.90;;;;;;5067261;28;20123;-72
2023/10/29 02:12:21;;;;;;;7.10;1.58;;;12.40;99.90;;;;;;5069461;28;20124;-72
2023/10/29 02:14:46;;;;;;;4.13;1.40;;;12.50;99.90;;;;;;5070868;28;20119;-72
2023/10/29 02:17:12;;;;;;;3.50;1.27;;;12.50;99.90;;;;;;5068462;28;20045;-72
2023/10/29 02:19:38;;;;;;;1.50;1.10;;;12.40;99.90;;;;;;5054552;28;20047;-72
2023/10/29 02:22:04;;;;;;;6.40;1.27;;;12.60;99.90;;;;;;5095855;28;20495;-72
2023/10/29 02:24:30;;;;;;;2.47;0.98;;;12.40;99.90;;;;;;5070027;28;20099;-72
2023/10/29 02:26:55;;;;;;;3.83;1.13;;;12.50;99.90;;;;;;5069148;28;20505;-72
2023/10/29 02:29:21;;;;;;;6.53;1.20;;;12.50;99.90;;;;;;5069559;28;20028;-72
2023/10/29 02:31:47;;;;;;;2.63;1.17;;;12.50;99.90;;;;;;5070279;28;20065;-72
2023/10/29 02:34:12;;;;;;;2.15;1.25;;;12.50;99.90;;;;;;5100261;27;20736;-72
2023/10/29 02:36:38;;;;;;;2.60;0.80;;;12.70;99.90;;;;;;5068444;28;20086;-72
2023/10/29 02:39:04;;;;;;;2.58;1.10;;;12.50;99.90;;;;;;5068955;28;20136;-72
2023/10/29 02:41:31;;;;;;;2.75;0.93;;;12.40;99.90;;;;;;5071817;28;20032;-72
2023/10/29 02:43:58;;;;;;;3.17;0.90;;;12.50;99.90;;;;;;5069542;28;20040;-72
2023/10/29 02:46:26;;;;;;;3.88;1.30;;;12.50;99.90;;;;;;5068069;28;20167;-72
2023/10/29 02:48:52;;;;;;;4.32;1.10;;;12.60;99.90;;;;;;5066263;28;20044;-72
2023/10/29 02:51:17;;;;;;;3.40;1.00;;;12.60;99.90;;;;;;5066630;28;20370;-72
2023/10/29 02:53:43;;;;;;;3.38;0.90;;;12.70;99.90;;;;;;5067255;28;20036;-72
2023/10/29 02:56:09;;;;;;;2.30;0.70;;;12.50;99.90;;;;;;5066658;28;20483;-72
2023/10/29 02:58:35;;;;;;;1.75;0.65;;;12.60;99.90;;;;;;5079543;28;20050;-72
2023/10/29 03:01:08;;;;;;;2.00;0.55;;;12.90;99.90;;;;;;5069968;28;20126;-72
2023/10/29 03:03:35;;;;;;;2.47;0.75;;;12.60;99.90;;;;;;5070233;28;20087;-72
2023/10/29 03:06:05;;;;;;;3.92;0.70;;;12.80;99.90;;;;;;5099536;28;20044;-72
2023/10/29 03:08:31;;;;;;;2.83;1.00;;;12.60;99.90;;;;;;5066460;28;20040;-72
2023/10/29 03:10:56;;;;;;;4.00;0.60;;;12.70;99.90;;;;;;5069242;28;20047;-72
2023/10/29 03:13:22;;;;;;;1.92;0.43;;;12.80;99.90;;;;;;5068965;28;20111;-72
2023/10/29 03:15:48;;;;;;;2.92;0.90;;;12.80;99.90;;;;;;5068278;28;20067;-72
2023/10/29 03:18:14;;;;;;;2.13;0.50;;;12.80;99.90;;;;;;5068556;28;20134;-72
2023/10/29 03:20:40;;;;;;;2.58;1.00;;;12.90;99.90;;;;;;5048235;28;20051;-72
2023/10/29 03:23:06;;;;;;;1.67;0.50;;;12.80;99.90;;;;;;5069514;28;20036;-72
2023/10/29 03:25:32;;;;;;;4.25;0.50;;;12.90;99.90;;;;;;5098132;28;20038;-72
2023/10/29 03:27:58;;;;;;;3.33;0.73;;;12.90;99.90;;;;;;5069701;28;20071;-72
2023/10/29 03:30:23;;;;;;;1.10;0.30;;;13.00;99.90;;;;;;5101537;27;20048;-72
2023/10/29 03:32:49;;;;;;;2.30;0.57;;;13.00;99.90;;;;;;5067680;28;20479;-72
2023/10/29 03:35:15;;;;;;;2.47;0.60;;;13.10;99.90;;;;;;5069180;28;20386;-72
2023/10/29 03:37:41;;;;;;;1.50;0.50;;;13.10;99.90;;;;;;5067327;28;20048;-72
2023/10/29 03:40:07;;;;;;;2.35;0.50;;;13.00;99.90;;;;;;5069147;28;20040;-72
2023/10/29 03:42:33;;;;;;;1.83;0.40;;;13.00;99.90;;;;;;5067407;28;20490;-72
2023/10/29 03:44:59;;;;;;;1.15;0.38;;;13.00;99.90;;;;;;5052449;28;20072;-72
2023/10/29 03:47:24;;;;;;;0.80;0.20;;;13.00;99.90;;;;;;5066967;28;20376;-73
2023/10/29 03:49:50;;;;;;;2.05;0.45;;;13.10;99.90;;;;;;5067671;28;20029;-73
2023/10/29 03:52:18;;;;;;;1.65;0.20;;;13.00;99.90;;;;;;5065183;28;20048;-72
2023/10/29 03:54:44;;;;;;;2.05;0.47;;;13.00;99.90;;;;;;5065141;28;20040;-72
2023/10/29 03:57:10;;;;;;;3.63;0.40;;;13.00;99.90;;;;;;5067812;28;20035;-73
2023/10/29 03:59:36;;;;;;;3.05;0.50;;;13.10;99.90;;;;;;5069055;28;20127;-72
2023/10/29 04:02:01;;;;;;;4.68;0.45;;;13.10;99.90;;;;;;5086870;28;20111;-72
2023/10/29 04:04:27;;;;;;;2.05;0.35;;;13.10;99.90;;;;;;5069648;28;20107;-72
2023/10/29 04:06:53;;;;;;;1.15;0.40;;;13.10;99.90;;;;;;5065465;28;20037;-72
2023/10/29 04:09:18;;;;;;;4.72;0.75;;;13.10;99.90;;;;;;5068307;28;20110;-72
2023/10/29 04:11:44;;;;;;;1.23;0.30;;;13.10;99.90;;;;;;5068547;28;20044;-73
2023/10/29 04:14:09;;;;;;;0.70;0.30;;;13.20;99.90;;;;;;5067222;28;20033;-73
2023/10/29 04:16:35;;;;;;;2.35;0.38;;;13.20;99.90;;;;;;5070341;28;20402;-72
2023/10/29 04:19:01;;;;;;;1.10;0.30;;;13.20;99.90;;;;;;5065232;28;20040;-73
2023/10/29 04:21:26;;;;;;;3.65;0.22;;;13.20;99.90;;;;;;5065939;28;20070;-73
2023/10/29 04:23:52;;;;;;;1.00;0.20;;;13.20;99.90;;;;;;5066694;28;20041;-73
2023/10/29 04:26:18;;;;;;;2.25;0.77;;;13.20;99.90;;;;;;5068211;28;20139;-72
2023/10/29 04:28:43;;;;;;;1.13;0.22;;;13.30;99.90;;;;;;5067395;28;20119;-72
2023/10/29 04:31:09;;;;;;;2.20;0.30;;;13.20;99.90;;;;;;5067983;28;20040;-73
2023/10/29 04:33:35;;;;;;;5.55;1.48;;;13.70;99.90;;;;;;5067540;28;20128;-72
2023/10/29 04:36:00;;;;;;;1.60;0.30;;;13.20;99.90;;;;;;5066671;28;20044;-74
2023/10/29 04:38:26;;;;;;;2.90;0.73;;;13.20;99.90;;;;;;5067724;28;20482;-74
2023/10/29 04:40:52;;;;;;;4.82;0.32;;;13.20;99.90;;;;;;5097256;28;20044;-73
2023/10/29 04:43:17;;;;;;;3.92;0.28;;;13.00;99.90;;;;;;5063670;28;20578;-73
2023/10/29 04:45:43;;;;;;;0.77;0.20;;;12.80;99.90;;;;;;5065895;28;20051;-73
2023/10/29 04:48:09;;;;;;;3.38;0.20;;;12.60;99.90;;;;;;5068747;28;20047;-73
2023/10/29 04:50:34;;;;;;;0.52;0.05;;;12.50;99.90;;;;;;5065117;28;20041;-73
2023/10/29 04:53:02;;;;;;;0.52;0.20;;;12.30;99.90;;;;;;5066463;28;20040;-73
2023/10/29 04:55:29;;;;;;;0.50;0.20;;;12.30;99.90;;;;;;5067145;28;20046;-73
2023/10/29 04:57:54;;;;;;;1.30;0.43;;;12.20;99.90;;;;;;5095166;28;20052;-73
2023/10/29 05:00:20;;;;;;;2.42;0.30;;;12.10;99.90;;;;;;5067275;28;20500;-73
2023/10/29 05:02:46;;;;;;;1.20;0.20;;;12.20;99.90;;;;;;5071117;28;20037;-72
2023/10/29 05:05:11;;;;;;;1.95;0.30;;;12.20;99.90;;;;;;5064303;28;20434;-72
2023/10/29 05:07:37;;;;;;;1.00;0.20;;;12.10;99.90;;;;;;5064437;28;20090;-72
2023/10/29 05:10:04;;;;;;;5.38;0.38;;;12.30;99.90;;;;;;5067054;28;20075;-73
2023/10/29 05:12:30;;;;;;;4.43;0.45;;;12.10;99.90;;;;;;5066323;28;20067;-73
2023/10/29 05:14:56;;;;;;;0.77;0.20;;;12.50;99.90;;;;;;5050838;28;20045;-72
2023/10/29 05:17:22;;;;;;;0.55;0.20;;;12.30;99.90;;;;;;5065385;28;20032;-73
2023/10/29 05:19:48;;;;;;;1.75;0.20;;;12.30;99.90;;;;;;5069838;28;20037;-73
2023/10/29 05:22:13;;;;;;;4.22;0.60;;;12.30;99.90;;;;;;5071714;28;20044;-73
2023/10/29 05:24:39;;;;;;;1.85;0.40;;;12.40;99.90;;;;;;5070021;28;20049;-73
2023/10/29 05:27:04;;;;;;;3.33;0.20;;;12.60;99.90;;;;;;5072875;28;20039;-73
2023/10/29 05:29:32;;;;;;;1.35;0.20;;;12.40;99.90;;;;;;5071065;28;20478;-73
2023/10/29 05:31:58;;;;;;;2.20;0.30;;;12.40;99.90;;;;;;5067184;28;20094;-73
2023/10/29 05:34:23;;;;;;;1.90;0.20;;;12.40;99.90;;;;;;5071892;28;20470;-73
2023/10/29 05:36:49;;;;;;;1.40;0.30;;;12.40;99.90;;;;;;5073123;28;20032;-73
2023/10/29 05:39:15;;;;;;;2.38;0.40;;;12.50;99.90;;;;;;5071547;28;20044;-73
2023/10/29 05:41:41;;;;;;;2.40;0.43;;;12.50;99.90;;;;;;5072722;28;20036;-73
2023/10/29 05:44:06;;;;;;;2.40;0.40;;;12.50;99.90;;;;;;5069318;28;20035;-73
2023/10/29 05:46:32;;;;;;;0.98;0.20;;;12.60;99.90;;;;;;5069978;28;20078;-73
2023/10/29 05:48:58;;;;;;;1.52;0.22;;;12.60;99.90;;;;;;5069621;28;20032;-72
2023/10/29 05:51:24;;;;;;;2.05;0.20;;;12.70;99.90;;;;;;5070169;28;20036;-72
2023/10/29 05:53:49;;;;;;;0.63;0.20;;;12.70;99.90;;;;;;5072561;28;20055;-73
2023/10/29 05:56:18;;;;;;;1.50;0.30;;;12.80;99.90;;;;;;5068794;28;20479;-73
2023/10/29 05:58:44;;;;;;;2.28;0.38;;;12.80;99.90;;;;;;5065341;28;20047;-73
2023/10/29 06:01:10;;;;;;;3.13;0.63;;;12.80;99.90;;;;;;5070798;28;20052;-73
2023/10/29 06:03:36;;;;;;;4.07;0.40;;;12.80;99.90;;;;;;5059787;28;20040;-73
2023/10/29 06:06:02;;;;;;;3.67;0.20;;;12.80;99.90;;;;;;5065390;28;20082;-73
2023/10/29 06:08:28;;;;;;;2.65;0.38;;;12.80;99.90;;;;;;5070461;28;20059;-73
2023/10/29 06:10:54;;;;;;;1.15;0.35;;;12.90;99.90;;;;;;5070776;28;20024;-73
2023/10/29 06:13:20;;;;;;;1.95;0.30;;;12.90;99.90;;;;;;5069744;28;20062;-73
2023/10/29 06:15:45;;;;;;;2.83;0.50;;;13.00;99.90;;;;;;5067535;28;20082;-73
2023/10/29 06:18:12;;;;;;;3.58;0.30;;;13.00;99.90;;;;;;5068167;28;20043;-73
2023/10/29 06:20:41;;;;;;;3.50;0.63;;;13.00;99.90;;;;;;5068527;28;20056;-73
2023/10/29 06:23:08;;;;;;;1.23;0.20;;;13.00;99.90;;;;;;5068102;28;20115;-73
2023/10/29 06:25:33;;;;;;;2.58;0.30;;;13.10;99.90;;;;;;5067384;28;20028;-73
2023/10/29 06:27:59;;;;;;;1.85;0.30;;;13.10;99.90;;;;;;5070778;28;20507;-73
2023/10/29 06:30:25;;;;;;;2.92;0.65;;;13.10;99.90;;;;;;5068495;28;20033;-73
2023/10/29 06:32:51;;;;;;;1.85;0.35;;;13.10;99.90;;;;;;5071556;28;20051;-73
2023/10/29 06:35:17;;;;;;;1.25;0.20;;;13.10;99.90;;;;;;5066327;28;20045;-73
2023/10/29 06:37:42;;;;;;;2.05;0.30;;;13.10;99.90;;;;;;5070499;28;21703;-73
2023/10/29 06:40:08;;;;;;;4.15;0.20;;;13.10;99.90;;;;;;5070107;28;20052;-73
2023/10/29 06:42:35;;;;;;;1.73;0.20;;;13.10;99.90;;;;;;5071589;28;20051;-73
2023/10/29 06:45:02;;;;;;;0.88;0.25;;;13.40;99.90;;;;;;5070092;28;20040;-73
2023/10/29 06:47:27;;;;;;;1.63;0.10;;;13.00;99.90;;;;;;5071325;28;20069;-73
2023/10/29 06:49:54;;;;;;;1.48;0.43;;;13.10;99.90;;;;;;5072023;28;21579;-73
2023/10/29 06:52:21;;;;;;;1.65;0.30;;;13.00;99.90;;;;;;5068514;28;20127;-73
2023/10/29 06:54:47;;;;;;;2.72;0.20;;;13.00;99.90;;;;;;5068278;28;20114;-73
2023/10/29 06:57:13;;;;;;;2.05;0.25;;;13.10;99.90;;;;;;5063704;28;20041;-73
2023/10/29 06:59:39;;;;;;;2.03;0.20;;;13.10;99.90;;;;;;5062402;28;20731;-73
2023/10/29 07:02:06;;;;;;;1.25;0.20;;;13.00;99.90;;;;;;5061775;28;20114;-73
2023/10/29 07:04:33;;;;;;;2.42;0.30;;;13.00;99.90;;;;;;5064251;28;20400;-73
2023/10/29 07:06:59;;;;;;;2.70;0.50;;;13.00;99.90;;;;;;5064661;28;20037;-73
2023/10/29 07:09:24;;;;;;;4.68;0.20;;;13.30;99.90;;;;;;5059377;28;20486;-73
2023/10/29 07:11:51;;;;;;;4.18;0.35;;;13.00;99.90;;;;;;5095654;27;20040;-73
2023/10/29 07:14:17;;;;;;;2.83;0.65;;;13.00;99.90;;;;;;5059201;28;20060;-73
2023/10/29 07:16:44;;;;;;;2.83;0.20;;;13.10;99.90;;;;;;5066470;28;20043;-73
2023/10/29 07:19:11;;;;;;;1.63;0.30;;;13.30;99.90;;;;;;5067163;28;20082;-73
2023/10/29 07:21:37;;;;;;;2.92;0.30;;;13.00;99.90;;;;;;5066653;28;20035;-73
2023/10/29 07:24:05;;;;;;;2.65;0.52;;;13.00;99.90;;;;;;5064892;28;20422;-73
2023/10/29 07:26:31;;;;;;;1.25;0.22;;;13.00;99.90;;;;;;5067283;28;20037;-74
2023/10/29 07:28:57;;;;;;;3.17;0.30;;;13.30;99.90;;;;;;5062380;28;20040;-73
2023/10/29 07:31:23;;;;;;;2.15;0.30;;;13.00;99.90;;;;;;5066698;28;20085;-73
2023/10/29 07:33:48;;;;;;;3.25;0.47;;;13.20;99.90;;;;;;5068427;28;20044;-73
2023/10/29 07:36:14;;;;;;;2.03;0.30;;;13.10;99.90;;;;;;5065477;28;20045;-73
2023/10/29 07:38:40;;;;;;;2.42;0.40;;;13.10;99.90;;;;;;5063966;28;20449;-73
2023/10/29 07:41:05;;;;;;;3.63;0.93;;;13.00;99.90;;;;;;5096831;28;20652;-73
2023/10/29 07:43:31;;;;;;;2.13;0.22;;;13.10;99.90;;;;;;5059997;28;20141;-73
2023/10/29 07:46:04;;;;;;;1.25;0.30;;;12.90;99.90;;;;;;5063659;28;20044;-73
2023/10/29 07:48:30;;;;;;;2.00;0.20;;;13.00;99.90;;;;;;5065579;28;20047;-73
2023/10/29 07:50:55;;;;;;;3.13;0.63;;;13.00;99.90;;;;;;5055820;28;20343;-73
2023/10/29 07:53:21;;;;;;;3.45;0.52;;;13.00;99.90;;;;;;5064966;28;20040;-73
2023/10/29 07:55:47;;;;;;;3.00;0.60;;;13.00;99.90;;;;;;5064872;28;20055;-73
2023/10/29 07:58:13;;;;;;;4.47;0.40;;;12.90;99.90;;;;;;5065766;28;20486;-73
2023/10/29 08:00:38;;;;;;;2.25;0.30;;;12.90;99.90;;;;;;5082107;28;20089;-73
2023/10/29 08:03:04;;;;;;;4.18;0.95;;;12.90;99.90;;;;;;5065219;28;20094;-73
2023/10/29 08:05:30;;;;;;;2.08;0.75;;;13.00;99.90;;;;;;5067373;28;20116;-73
2023/10/29 08:07:55;;;;;;;4.13;0.30;;;12.90;99.90;;;;;;5064910;28;20044;-73
2023/10/29 08:10:21;;;;;;;3.03;0.40;;;13.00;99.90;;;;;;5061320;28;20036;-73
2023/10/29 08:12:47;;;;;;;3.95;0.40;;;13.00;99.90;;;;;;5046685;28;20044;-73
2023/10/29 08:15:13;;;;;;;3.38;0.47;;;12.90;99.90;;;;;;5074550;28;20066;-73
2023/10/29 08:17:39;;;;;;;3.10;0.82;;;13.10;99.90;;;;;;5066892;28;20492;-73
2023/10/29 08:20:06;;;;;;;2.92;0.47;;;12.90;99.90;;;;;;5065519;28;20048;-73
2023/10/29 08:22:32;;;;;;;2.72;0.45;;;13.00;99.90;;;;;;5064327;28;20463;-73
2023/10/29 08:24:59;;;;;;;3.05;0.30;;;13.10;99.90;;;;;;5064606;28;20139;-73
2023/10/29 08:27:25;;;;;;;4.60;1.10;;;13.00;99.90;;;;;;5094576;28;20078;-73
2023/10/29 08:29:52;;;;;;;2.22;0.30;;;13.10;99.90;;;;;;5060230;28;20048;-73
2023/10/29 08:32:18;;;;;;;5.65;0.40;;;13.10;99.90;;;;;;5063918;28;20048;-73
2023/10/29 08:34:43;;;;;;;4.43;0.30;;;13.20;99.90;;;;;;5063595;28;20129;-73
2023/10/29 08:37:10;;;;;;;3.65;0.73;;;13.20;99.90;;;;;;5064031;28;20128;-73
2023/10/29 08:39:36;;;;;;;5.38;0.30;;;13.20;99.90;;;;;;5063581;28;20036;-73
2023/10/29 08:42:02;;;;;;;3.13;0.40;;;13.20;99.90;;;;;;5089564;28;20068;-73
2023/10/29 08:44:28;;;;;;;3.22;0.60;;;13.20;99.90;;;;;;5060726;28;20387;-73
2023/10/29 08:46:54;;;;;;;4.60;0.40;;;13.60;99.90;;;;;;5062564;28;20040;-73
2023/10/29 08:49:19;;;;;;;2.20;0.28;;;13.30;99.90;;;;;;5064603;28;20405;-73
2023/10/29 08:51:45;;;;;;;2.17;0.30;;;13.50;99.90;;;;;;5077646;28;20489;-73
2023/10/29 08:54:11;;;;;;;3.33;0.30;;;13.50;99.90;;;;;;5066331;28;20055;-73
2023/10/29 08:56:37;;;;;;;1.77;0.52;;;13.40;99.90;;;;;;5064807;28;20059;-73
2023/10/29 08:59:06;;;;;;;2.40;0.20;;;13.40;99.90;;;;;;5059945;28;20040;-73
2023/10/29 09:01:32;;;;;;;3.03;0.30;;;13.40;99.90;;;;;;5068304;28;20632;-73
2023/10/29 09:03:59;;;;;;;3.85;0.50;;;13.40;99.90;;;;;;5064852;28;20048;-73
2023/10/29 09:06:25;;;;;;;3.15;0.50;;;13.40;99.90;;;;;;5067829;28;20040;-73
2023/10/29 09:08:51;;;;;;;1.52;0.30;;;13.50;99.90;;;;;;5064203;28;20036;-73
2023/10/29 09:11:17;;;;;;;2.67;0.65;;;13.50;99.90;;;;;;5062785;28;20101;-76
2023/10/29 09:13:42;;;;;;;5.30;0.60;;;13.50;99.90;;;;;;5061772;28;21037;-75
2023/10/29 09:16:10;;;;;;;3.83;1.15;;;13.60;99.90;;;;;;5064719;28;20390;-75
2023/10/29 09:18:36;;;;;;;5.72;0.65;;;13.60;99.90;;;;;;5076436;28;20049;-75
2023/10/29 09:21:02;;;;;;;3.42;0.70;;;13.70;99.90;;;;;;5063588;28;20062;-75
2023/10/29 09:23:29;;;;;;;1.85;0.43;;;13.80;99.90;;;;;;5062705;28;21378;-75
2023/10/29 09:25:55;;;;;;;5.45;1.05;;;13.90;99.90;;;;;;5064435;28;20126;-75
2023/10/29 09:28:21;;;;;;;6.00;0.40;;;13.90;99.90;;;;;;5062329;28;20040;-75
2023/10/29 09:30:47;;;;;;;3.35;0.50;;;14.00;99.90;;;;;;5061365;28;20044;-75
2023/10/29 09:33:15;;;;;;;3.42;0.50;;;14.10;99.90;;;;;;5063381;28;21328;-75
2023/10/29 09:35:41;;;;;;;1.60;0.30;;;14.10;99.90;;;;;;5064671;28;20041;-75
2023/10/29 09:38:07;;;;;;;3.10;0.60;;;14.10;99.90;;;;;;5060729;28;20029;-75
2023/10/29 09:40:32;;;;;;;3.72;0.57;;;14.10;99.90;;;;;;5061825;28;20040;-75
2023/10/29 09:43:04;;;;;;;3.03;0.50;;;14.10;99.90;;;;;;5090648;28;20472;-75
2023/10/29 09:45:32;;;;;;;3.05;0.50;;;14.10;99.90;;;;;;5062610;28;20045;-76
2023/10/29 09:47:59;;;;;;;2.53;0.40;;;14.00;99.90;;;;;;5057001;28;20032;-75
2023/10/29 09:50:26;;;;;;;5.72;1.58;;;14.10;99.90;;;;;;5088751;28;20033;-75
2023/10/29 09:52:52;;;;;;;2.75;0.40;;;14.10;99.90;;;;;;5062560;28;20074;-75
2023/10/29 09:55:20;;;;;;;3.08;0.85;;;14.00;99.90;;;;;;5062562;28;20044;-76
2023/10/29 09:57:49;;;;;;;4.13;0.60;;;13.90;99.90;;;;;;5062164;28;20571;-75
2023/10/29 10:00:16;;;;;;;6.47;0.70;;;14.00;99.90;;;;;;5060867;28;20450;-75
2023/10/29 10:02:53;;;;;;;4.22;0.63;;;14.00;99.90;;;;;;5091542;28;20523;-76
2023/10/29 10:05:22;;;;;;;6.13;0.95;;;14.10;99.90;;;;;;5090766;28;20044;-75
2023/10/29 10:07:48;;;;;;;7.53;1.13;;;14.00;99.90;;;;;;5067640;28;20070;-74
2023/10/29 10:10:15;;;;;;;3.15;0.70;;;14.00;99.90;;;;;;5068562;28;20044;-74
2023/10/29 10:12:51;;;;;;;2.65;0.55;;;14.00;99.90;;;;;;5067201;28;20085;-75
2023/10/29 10:15:17;;;;;;;5.97;0.82;;;14.10;99.90;;;;;;5060229;28;20063;-74
2023/10/29 10:17:50;;;;;;;3.65;0.70;;;14.10;99.90;;;;;;5063689;28;20728;-75
2023/10/29 10:20:20;;;;;;;6.32;0.95;;;14.70;99.90;;;;;;5069992;28;20124;-74
2023/10/29 10:22:45;;;;;;;1.73;0.55;;;14.30;99.90;;;;;;5066260;28;20036;-74
2023/10/29 10:25:18;;;;;;;5.55;0.95;;;14.10;99.90;;;;;;5065918;28;20075;-75
2023/10/29 10:27:49;;;;;;;2.90;0.63;;;14.10;99.90;;;;;;5068537;28;20068;-75
2023/10/29 10:30:28;;;;;;;6.03;1.17;;;14.10;99.90;;;;;;5064831;28;20068;-75
2023/10/29 10:33:06;;;;;;;4.82;1.25;;;14.10;99.90;;;;;;5069357;28;20470;-74
2023/10/29 10:35:43;;;;;;;2.75;0.75;;;14.10;99.90;;;;;;5069903;28;20032;-75
2023/10/29 10:38:10;;;;;;;3.03;0.50;;;14.00;99.90;;;;;;5067653;28;20167;-74
2023/10/29 10:40:37;;;;;;;5.38;1.08;;;14.00;99.90;;;;;;5099189;28;20043;-75
2023/10/29 10:43:04;;;;;;;4.47;0.63;;;14.00;99.90;;;;;;5067212;28;20056;-74
2023/10/29 10:45:31;;;;;;;3.95;0.77;;;14.00;99.90;;;;;;5063791;28;20033;-74
2023/10/29 10:48:00;;;;;;;3.60;0.75;;;14.00;99.90;;;;;;5069025;28;20545;-74
2023/10/29 10:50:27;;;;;;;7.07;1.75;;;14.00;99.90;;;;;;5066815;28;20495;-74
2023/10/29 10:52:54;;;;;;;6.30;1.02;;;14.10;99.90;;;;;;5064474;28;20132;-74
2023/10/29 10:55:22;;;;;;;9.00;1.02;;;14.10;99.90;;;;;;5070594;28;20056;-74
2023/10/29 10:57:49;;;;;;;2.97;0.63;;;14.40;99.90;;;;;;5067992;28;20119;-74
2023/10/29 11:00:17;;;;;;;5.70;0.70;;;14.20;99.90;;;;;;5065134;28;20139;-74
2023/10/29 11:02:44;;;;;;;6.50;1.25;;;14.20;99.90;;;;;;5097729;28;20040;-74
2023/10/29 11:05:18;;;;;;;4.63;0.73;;;14.20;99.90;;;;;;5048895;28;20040;-74
2023/10/29 11:07:44;;;;;;;10.18;1.27;;;14.20;99.90;;;;;;5048513;28;20058;-74
2023/10/29 11:10:15;;;;;;;3.95;0.60;;;14.10;99.90;;;;;;5066205;28;20429;-74
2023/10/29 11:12:41;;;;;;;5.32;0.80;;;14.20;99.90;;;;;;5096842;28;20040;-74
2023/10/29 11:15:15;;;;;;;6.97;1.63;;;14.50;99.90;;;;;;5067472;28;20501;-75
2023/10/29 11:17:56;;;;;;;6.78;1.17;;;14.40;99.90;;;;;;5067532;28;20186;-74
2023/10/29 11:20:37;;;;;;;3.45;0.88;;;14.60;99.90;;;;;;5064633;28;20043;-74
2023/10/29 11:23:09;;;;;;;4.13;0.82;;;15.00;99.90;;;;;;5065628;28;20063;-74
2023/10/29 11:25:41;;;;;;;6.90;1.05;;;15.20;99.90;;;;;;5065285;28;20036;-74
2023/10/29 11:28:34;;;;;;;5.70;0.63;;;15.20;99.90;;;;;;5063924;28;20040;-74
2023/10/29 11:31:15;;;;;;;4.68;0.73;;;15.10;99.90;;;;;;5089512;28;20052;-74
2023/10/29 11:34:02;;;;;;;4.60;0.73;;;15.10;99.90;;;;;;5061980;28;20093;-74
2023/10/29 11:36:32;;;;;;;5.93;0.98;;;15.00;99.90;;;;;;5040989;28;20048;-74
2023/10/29 11:39:16;;;;;;;4.25;0.70;;;14.90;99.90;;;;;;5063958;28;20062;-74
2023/10/29 11:41:49;;;;;;;5.90;0.57;;;14.80;99.90;;;;;;5064597;28;20166;-74
2023/10/29 11:44:25;;;;;;;7.72;1.98;;;14.70;99.90;;;;;;5063289;28;20048;-75
2023/10/29 11:47:03;;;;;;;7.35;1.05;;;14.80;99.90;;;;;;5065771;28;20111;-74
2023/10/29 11:49:50;;;;;;;5.85;1.23;;;14.60;99.90;;;;;;5061398;28;20127;-74
2023/10/29 11:52:17;;;;;;;4.72;0.52;;;14.50;99.90;;;;;;5048318;28;20052;-74
2023/10/29 11:54:43;;;;;;;5.63;1.50;;;14.40;99.90;;;;;;5061357;28;20044;-74
2023/10/29 11:57:09;;;;;;;3.95;1.50;;;14.40;99.90;;;;;;5062921;28;20051;-73
2023/10/29 11:59:53;;;;;;;8.50;2.03;;;14.40;99.90;;;;;;5093742;27;20139;-74
2023/10/29 12:02:19;;;;;;;13.35;0.80;;;14.40;99.90;;;;;;5061913;28;20579;-74
2023/10/29 12:04:45;;;;;;;5.82;0.70;;;14.40;99.90;;;;;;5064664;28;20051;-74
2023/10/29 12:07:26;;;;;;;5.38;0.90;;;14.30;99.90;;;;;;5091698;28;20052;-74
2023/10/29 12:10:08;;;;;;;6.13;0.65;;;14.20;99.90;;;;;;5090579;28;20647;-74
2023/10/29 12:12:34;;;;;;;4.15;0.77;;;14.20;99.90;;;;;;5062582;28;20058;-74
2023/10/29 12:15:01;;;;;;;7.85;1.75;;;14.20;99.90;;;;;;5064724;28;20061;-74
2023/10/29 12:17:28;;;;;;;7.65;0.90;;;14.30;99.90;;;;;;5062546;28;20052;-74
2023/10/29 12:19:54;;;;;;;3.70;1.02;;;14.30;99.90;;;;;;5063942;28;20056;-74
2023/10/29 12:22:21;;;;;;;7.10;1.17;;;14.30;99.90;;;;;;5060864;28;20044;-74
2023/10/29 12:24:53;;;;;;;4.72;0.85;;;14.30;99.90;;;;;;5060245;28;20114;-74
2023/10/29 12:27:21;;;;;;;6.03;1.05;;;14.30;99.90;;;;;;5062075;28;20056;-74
2023/10/29 12:29:47;;;;;;;5.63;0.70;;;14.50;99.90;;;;;;5064745;28;20059;-74
2023/10/29 12:32:26;;;;;;;6.10;0.73;;;14.40;99.90;;;;;;5062518;28;20387;-74
2023/10/29 12:34:53;;;;;;;4.72;0.60;;;14.40;99.90;;;;;;5064880;28;20049;-73
2023/10/29 12:37:27;;;;;;;5.63;0.85;;;14.30;99.90;;;;;;5060803;28;20036;-74
2023/10/29 12:39:56;;;;;;;4.43;0.65;;;14.30;99.90;;;;;;5060398;28;20066;-73
2023/10/29 12:42:53;;;;;;;6.60;0.70;;;14.30;99.90;;;;;;5063903;28;20057;-74
2023/10/29 12:45:26;;;;;;;7.80;0.95;;;14.20;99.90;;;;;;5062562;28;20083;-73
2023/10/29 12:48:08;;;;;;;7.30;0.85;;;14.20;99.90;;;;;;5062228;28;20040;-74